createdAt,value
2023-04-08T00:01:18.134Z,17.30
2023-04-08T00:05:19.870Z,16.58
2023-04-08T00:09:21.521Z,16.73
2023-04-08T00:13:23.251Z,18.20
2023-04-08T00:17:26.573Z,16.67
2023-04-08T00:21:28.294Z,18.77
2023-04-08T00:25:32.784Z,18.73
2023-04-08T00:29:34.557Z,18.40
2023-04-08T00:33:36.654Z,18.75
2023-04-08T00:37:38.404Z,17.50
2023-04-08T00:41:40.283Z,19.20
2023-04-08T00:45:41.937Z,17.30
2023-04-08T00:49:44.357Z,17.05
2023-04-08T00:53:46.120Z,19.07
2023-04-08T00:57:48.662Z,19.23
2023-04-08T01:02:15.402Z,18.50
2023-04-08T01:06:46.948Z,19.35
2023-04-08T01:10:53.797Z,19.58
2023-04-08T01:15:06.386Z,19.75
2023-04-08T01:19:10.446Z,21.20
2023-04-08T01:23:40.681Z,21.20
2023-04-08T01:27:43.715Z,21.10
2023-04-08T01:31:47.028Z,20.35
2023-04-08T01:35:48.824Z,21.77
2023-04-08T01:39:52.221Z,21.73
2023-04-08T01:43:55.162Z,23.58
2023-04-08T01:47:58.297Z,22.55
2023-04-08T01:52:01.642Z,23.80
2023-04-08T01:56:12.078Z,22.90
2023-04-08T02:00:15.788Z,23.33
2023-04-08T02:04:17.554Z,25.00
2023-04-08T02:08:19.298Z,22.92
2023-04-08T02:12:21.029Z,25.05
2023-04-08T02:16:24.763Z,23.23
2023-04-08T02:20:26.409Z,23.70
2023-04-08T02:24:29.690Z,24.13
2023-04-08T02:28:34.231Z,24.98
2023-04-08T02:32:37.146Z,23.67
2023-04-08T02:36:41.007Z,25.30
2023-04-08T02:40:42.763Z,22.83
2023-04-08T02:44:44.468Z,24.63
2023-04-08T02:48:46.168Z,23.83
2023-04-08T02:52:47.894Z,25.00
2023-04-08T02:56:49.547Z,25.58
2023-04-08T03:00:51.271Z,26.58
2023-04-08T03:04:52.990Z,25.63
2023-04-08T03:08:54.634Z,26.50
2023-04-08T03:12:56.325Z,25.55
2023-04-08T03:16:58.015Z,25.00
2023-04-08T03:21:00.050Z,26.27
2023-04-08T03:25:01.769Z,27.17
2023-04-08T03:29:03.530Z,27.15
2023-04-08T03:33:08.005Z,25.95
2023-04-08T03:37:10.284Z,24.88
2023-04-08T03:41:12.260Z,24.40
2023-04-08T03:45:17.341Z,25.40
2023-04-08T03:49:19.040Z,25.73
2023-04-08T03:53:20.746Z,25.50
2023-04-08T03:57:22.430Z,24.75
2023-04-08T04:01:24.047Z,26.00
2023-04-08T04:05:25.720Z,23.60
2023-04-08T04:09:27.548Z,23.85
2023-04-08T04:13:29.258Z,22.08
2023-04-08T04:17:31.070Z,22.60
2023-04-08T04:21:32.860Z,23.25
2023-04-08T04:25:34.589Z,21.70
2023-04-08T04:29:36.532Z,19.42
2023-04-08T04:33:38.176Z,20.30
2023-04-08T04:37:39.841Z,19.35
2023-04-08T04:41:41.603Z,20.70
2023-04-08T04:45:44.061Z,20.85
2023-04-08T04:49:45.841Z,20.70
2023-04-08T04:53:49.226Z,22.15
2023-04-08T04:57:50.900Z,23.40
2023-04-08T05:01:52.699Z,23.38
2023-04-08T05:05:54.940Z,21.70
2023-04-08T05:09:56.655Z,19.73
2023-04-08T05:13:58.323Z,14.75
2023-04-08T05:18:00.289Z,17.45
2023-04-08T05:22:02.007Z,16.30
2023-04-08T05:26:06.636Z,18.13
2023-04-08T05:30:09.772Z,17.75
2023-04-08T05:38:13.400Z,18.27
2023-04-08T05:42:15.188Z,18.55
2023-04-08T05:46:17.431Z,19.27
2023-04-08T05:50:19.258Z,19.27
2023-04-08T05:54:21.038Z,19.52
2023-04-08T05:58:22.755Z,18.70
2023-04-08T06:02:25.323Z,19.23
2023-04-08T06:06:27.223Z,21.17
2023-04-08T06:10:28.954Z,19.90
2023-04-08T06:14:30.825Z,21.48
2023-04-08T06:18:32.562Z,20.65
2023-04-08T06:22:34.229Z,20.20
2023-04-08T06:26:35.895Z,20.98
2023-04-08T06:30:37.936Z,20.50
2023-04-08T06:34:40.921Z,21.35
2023-04-08T06:38:42.613Z,22.10
2023-04-08T06:42:44.467Z,23.20
2023-04-08T06:46:46.707Z,22.48
2023-04-08T06:50:48.415Z,25.30
2023-04-08T06:54:53.277Z,22.65
2023-04-08T06:58:55.431Z,20.27
2023-04-08T07:02:57.293Z,22.95
2023-04-08T07:06:59.149Z,23.75
2023-04-08T07:11:01.034Z,25.20
2023-04-08T07:15:02.738Z,23.77
2023-04-08T07:19:04.481Z,12.60
2023-04-08T07:23:06.245Z,19.88
2023-04-08T07:27:09.196Z,17.83
2023-04-08T07:31:18.445Z,17.88
2023-04-08T07:35:24.259Z,14.88
2023-04-08T07:39:26.216Z,21.70
2023-04-08T07:43:28.015Z,19.63
2023-04-08T07:47:31.040Z,22.70
2023-04-08T07:51:33.510Z,26.52
2023-04-08T07:55:35.433Z,24.73
2023-04-08T07:59:37.376Z,23.67
2023-04-08T08:03:39.523Z,27.70
2023-04-08T08:07:41.505Z,24.33
2023-04-08T08:11:43.240Z,26.02
2023-04-08T08:15:44.956Z,28.65
2023-04-08T08:19:46.723Z,25.95
2023-04-08T08:23:48.511Z,23.77
2023-04-08T08:27:51.091Z,25.70
2023-04-08T08:31:52.849Z,24.67
2023-04-08T08:35:55.167Z,28.50
2023-04-08T08:39:56.897Z,25.77
2023-04-08T08:44:00.299Z,28.80
2023-04-08T08:48:02.468Z,26.75
2023-04-08T08:52:04.215Z,24.65
2023-04-08T09:00:16.132Z,23.35
2023-04-08T09:04:22.753Z,22.45
2023-04-08T09:08:34.944Z,28.55
2023-04-08T09:12:53.880Z,23.65
2023-04-08T09:16:55.635Z,24.45
2023-04-08T09:20:57.415Z,25.52
2023-04-08T09:24:59.269Z,25.77
2023-04-08T09:29:18.218Z,25.52
2023-04-08T09:33:33.039Z,25.13
2023-04-08T09:37:34.722Z,25.25
2023-04-08T09:41:38.239Z,23.42
2023-04-08T09:45:42.766Z,25.13
2023-04-08T09:49:51.213Z,24.65
2023-04-08T09:54:01.392Z,24.15
2023-04-08T09:58:17.006Z,22.27
2023-04-08T10:02:27.844Z,22.15
2023-04-08T10:06:31.430Z,24.15
2023-04-08T10:10:37.556Z,25.98
2023-04-08T10:14:39.942Z,27.90
2023-04-08T10:18:43.311Z,26.30
2023-04-08T10:22:48.725Z,24.65
2023-04-08T10:26:50.443Z,23.92
2023-04-08T10:30:58.598Z,25.55
2023-04-08T10:35:00.295Z,25.73
2023-04-08T10:39:02.054Z,26.17
2023-04-08T10:43:03.867Z,26.02
2023-04-08T10:47:05.619Z,28.60
2023-04-08T10:51:09.132Z,25.85
2023-04-08T10:55:11.830Z,26.45
2023-04-08T10:59:16.854Z,28.00
2023-04-08T11:03:19.743Z,29.52
2023-04-08T11:07:21.612Z,28.85
2023-04-08T11:11:29.379Z,26.33
2023-04-08T11:15:31.271Z,26.02
2023-04-08T11:19:35.965Z,24.85
2023-04-08T11:23:38.410Z,26.13
2023-04-08T11:27:40.667Z,26.75
2023-04-08T11:31:47.112Z,26.57
2023-04-08T11:35:51.674Z,32.22
2023-04-08T11:39:56.916Z,28.65
2023-04-08T11:43:58.590Z,29.60
2023-04-08T11:48:00.856Z,30.70
2023-04-08T11:52:03.763Z,29.55
2023-04-08T11:56:24.968Z,31.33
2023-04-08T12:00:27.948Z,32.13
2023-04-08T12:08:32.008Z,29.55
2023-04-08T12:12:33.677Z,31.60
2023-04-08T12:16:35.543Z,32.20
2023-04-08T12:20:37.381Z,30.98
2023-04-08T12:24:39.072Z,33.45
2023-04-08T12:28:40.984Z,30.33
2023-04-08T12:32:45.913Z,28.05
2023-04-08T12:36:49.061Z,28.20
2023-04-08T12:44:52.628Z,30.15
2023-04-08T12:49:03.206Z,30.33
2023-04-08T12:53:05.803Z,32.67
2023-04-08T12:57:07.596Z,33.72
2023-04-08T13:01:09.812Z,32.47
2023-04-08T13:05:11.587Z,31.63
2023-04-08T13:09:15.086Z,31.52
2023-04-08T13:13:16.813Z,31.80
2023-04-08T13:17:18.490Z,30.27
2023-04-08T13:21:20.225Z,29.10
2023-04-08T13:25:21.965Z,30.02
2023-04-08T13:29:23.691Z,27.80
2023-04-08T13:33:25.446Z,28.42
2023-04-08T13:37:27.332Z,25.88
2023-04-08T13:41:29.205Z,22.20
2023-04-08T13:45:31.124Z,27.23
2023-04-08T13:49:32.904Z,25.48
2023-04-08T13:53:34.930Z,23.45
2023-04-08T13:57:36.664Z,24.25
2023-04-08T14:01:40.559Z,19.40
2023-04-08T14:05:42.382Z,20.85
2023-04-08T14:09:44.088Z,15.55
2023-04-08T14:13:45.977Z,15.18
2023-04-08T14:17:48.449Z,15.45
2023-04-08T14:21:50.402Z,14.52
2023-04-08T14:25:52.509Z,13.77
2023-04-08T14:29:54.202Z,13.57
2023-04-08T14:34:02.412Z,14.15
2023-04-08T14:38:04.317Z,13.38
2023-04-08T14:42:06.108Z,12.85
2023-04-08T14:46:07.866Z,15.63
2023-04-08T14:50:10.850Z,14.18
2023-04-08T14:54:14.322Z,15.02
2023-04-08T14:58:19.223Z,16.17
2023-04-08T15:02:20.951Z,14.63
2023-04-08T15:06:23.221Z,14.77
2023-04-08T15:10:24.858Z,16.83
2023-04-08T15:14:26.593Z,19.33
2023-04-08T15:18:28.281Z,21.92
2023-04-08T15:22:29.944Z,22.63
2023-04-08T15:26:31.721Z,22.92
2023-04-08T15:30:35.581Z,22.00
2023-04-08T15:34:37.336Z,23.15
2023-04-08T15:38:39.784Z,24.10
2023-04-08T15:42:41.477Z,23.33
2023-04-08T15:46:43.190Z,25.13
2023-04-08T15:50:45.021Z,25.20
2023-04-08T15:54:47.168Z,23.83
2023-04-08T15:58:49.116Z,26.77
2023-04-08T16:02:51.337Z,24.13
2023-04-08T16:06:53.214Z,23.80
2023-04-08T16:11:01.770Z,25.00
2023-04-08T16:15:03.595Z,35.05
2023-04-08T16:19:05.493Z,27.52
2023-04-08T16:23:07.224Z,23.80
2023-04-08T16:27:09.192Z,23.27
2023-04-08T16:31:11.005Z,23.63
2023-04-08T16:35:13.262Z,23.85
2023-04-08T16:39:14.949Z,24.03
2023-04-08T16:43:16.579Z,22.13
2023-04-08T16:47:18.235Z,21.05
2023-04-08T16:51:19.984Z,18.50
2023-04-08T16:55:21.654Z,16.73
2023-04-08T16:59:23.379Z,17.45
2023-04-08T17:03:27.172Z,15.02
2023-04-08T17:07:29.594Z,14.15
2023-04-08T17:11:33.745Z,13.53
2023-04-08T17:15:36.388Z,12.65
2023-04-08T17:19:38.231Z,14.93
2023-04-08T17:23:40.350Z,12.55
2023-04-08T17:27:42.228Z,13.00
2023-04-08T17:31:44.452Z,11.85
2023-04-08T17:35:46.522Z,11.60
2023-04-08T17:39:48.225Z,12.85
2023-04-08T17:43:50.170Z,12.85
2023-04-08T17:47:52.213Z,9.50
2023-04-08T17:51:56.426Z,9.50
2023-04-08T17:55:58.428Z,9.27
2023-04-08T18:00:00.642Z,10.10
2023-04-08T18:04:02.375Z,9.80
2023-04-08T18:08:04.409Z,10.75
2023-04-08T18:12:06.775Z,10.32
2023-04-08T18:16:21.889Z,13.80
2023-04-08T18:20:23.629Z,14.45
2023-04-08T18:24:25.344Z,13.30
2023-04-08T18:28:26.985Z,12.60
2023-04-08T18:32:28.848Z,14.93
2023-04-08T18:36:31.654Z,13.13
2023-04-08T18:40:33.669Z,10.85
2023-04-08T18:44:35.526Z,13.00
2023-04-08T18:48:37.234Z,14.00
2023-04-08T18:52:38.960Z,12.52
2023-04-08T18:56:41.018Z,11.25
2023-04-08T19:00:43.677Z,13.65
2023-04-08T19:04:45.476Z,12.75
2023-04-08T19:08:48.320Z,12.75
2023-04-08T19:12:51.259Z,12.30
2023-04-08T19:16:53.035Z,13.48
2023-04-08T19:20:54.784Z,13.35
2023-04-08T19:24:56.556Z,13.95
2023-04-08T19:28:58.318Z,19.65
2023-04-08T19:33:00.065Z,18.63
2023-04-08T19:37:01.811Z,21.13
2023-04-08T19:41:06.433Z,27.77
2023-04-08T19:45:08.446Z,15.57
2023-04-08T19:49:10.148Z,14.73
2023-04-08T19:53:12.048Z,14.65
2023-04-08T19:57:13.750Z,14.60
2023-04-08T20:01:15.769Z,15.88
2023-04-08T20:05:17.667Z,14.48
2023-04-08T20:09:19.386Z,16.58
2023-04-08T20:13:21.136Z,16.02
2023-04-08T20:17:24.484Z,32.00
2023-04-08T20:21:26.621Z,33.90
2023-04-08T20:25:28.487Z,17.83
2023-04-08T20:29:30.140Z,17.20
2023-04-08T20:33:31.898Z,16.25
2023-04-08T20:37:33.670Z,16.27
2023-04-08T20:41:36.430Z,16.60
2023-04-08T20:45:38.120Z,17.10
2023-04-08T20:49:41.093Z,18.90
2023-04-08T20:53:44.430Z,19.02
2023-04-08T20:57:47.839Z,19.00
2023-04-08T21:05:52.635Z,18.10
2023-04-08T21:09:54.333Z,18.63
2023-04-08T21:13:56.388Z,18.55
2023-04-08T21:17:58.142Z,18.27
2023-04-08T21:21:59.895Z,18.88
2023-04-08T21:26:03.304Z,18.10
2023-04-08T21:30:05.816Z,20.30
2023-04-08T21:34:07.544Z,24.83
2023-04-08T21:38:10.896Z,21.95
2023-04-08T21:42:12.525Z,20.55
2023-04-08T21:46:14.223Z,19.63
2023-04-08T21:50:16.434Z,19.77
2023-04-08T21:54:18.094Z,21.27
2023-04-08T21:58:19.813Z,22.77
2023-04-08T22:02:21.927Z,22.10
2023-04-08T22:06:32.063Z,21.90
2023-04-08T22:10:34.725Z,21.88
2023-04-08T22:14:36.692Z,23.13
2023-04-08T22:18:38.490Z,20.85
2023-04-08T22:22:40.192Z,21.63
2023-04-08T22:26:41.868Z,21.63
2023-04-08T22:30:43.654Z,21.52
2023-04-08T22:34:45.348Z,20.63
2023-04-08T22:38:47.466Z,20.05
2023-04-08T22:42:49.486Z,20.65
2023-04-08T22:46:51.595Z,22.27
2023-04-08T22:50:53.309Z,21.20
2023-04-08T22:54:55.056Z,21.23
2023-04-08T22:58:57.012Z,21.17
2023-04-08T23:02:59.004Z,23.42
2023-04-08T23:07:01.212Z,24.83
2023-04-08T23:11:02.921Z,26.20
2023-04-08T23:15:05.059Z,25.63
2023-04-08T23:19:06.767Z,26.02
2023-04-08T23:23:08.547Z,24.42
2023-04-08T23:27:10.421Z,23.27
2023-04-08T23:31:12.189Z,24.60
2023-04-08T23:35:13.899Z,24.05
2023-04-08T23:39:15.616Z,24.58
2023-04-08T23:43:17.334Z,24.55
2023-04-08T23:47:19.045Z,23.98
2023-04-08T23:51:20.879Z,26.48
2023-04-08T23:55:22.643Z,24.20
2023-04-08T23:59:24.694Z,26.85
